createdAt,value
2016-12-06T04:00:25.349Z,44.89
2016-12-06T04:00:51.059Z,45.05
2016-12-06T04:01:16.632Z,44.76
2016-12-06T04:01:42.178Z,44.76
2016-12-06T04:02:07.717Z,44.79
2016-12-06T04:02:33.256Z,44.79
2016-12-06T04:02:58.803Z,44.79
2016-12-06T04:03:24.425Z,44.59
2016-12-06T04:03:49.959Z,44.79
2016-12-06T04:04:15.540Z,44.79
2016-12-06T04:04:41.215Z,44.89
2016-12-06T04:05:06.760Z,44.59
2016-12-06T04:05:32.287Z,44.98
2016-12-06T04:05:57.833Z,45.46
2016-12-06T04:06:23.382Z,46.14
2016-12-06T04:06:49.000Z,45.36
2016-12-06T04:07:14.591Z,44.79
2016-12-06T04:07:40.126Z,44.89
2016-12-06T04:08:05.740Z,44.79
2016-12-06T04:08:31.400Z,44.98
2016-12-06T04:08:56.938Z,44.79
2016-12-06T04:09:22.570Z,44.98
2016-12-06T04:09:48.252Z,44.69
2016-12-06T04:10:13.801Z,44.69
2016-12-06T04:10:39.355Z,44.69
2016-12-06T04:11:04.904Z,44.76
2016-12-06T04:11:30.597Z,44.69
2016-12-06T04:11:56.145Z,44.59
2016-12-06T04:12:21.835Z,44.89
2016-12-06T04:12:47.391Z,44.79
2016-12-06T04:13:12.927Z,44.89
2016-12-06T04:13:38.475Z,44.67
2016-12-06T04:14:04.013Z,44.69
2016-12-06T04:14:29.670Z,44.79
2016-12-06T04:14:55.224Z,44.69
2016-12-06T04:15:20.820Z,44.69
2016-12-06T04:15:46.355Z,44.79
2016-12-06T04:16:12.015Z,44.79
2016-12-06T04:16:37.628Z,44.89
2016-12-06T04:17:03.160Z,44.79
2016-12-06T04:17:28.744Z,44.89
2016-12-06T04:17:54.320Z,44.76
2016-12-06T04:18:19.879Z,44.89
2016-12-06T04:18:45.460Z,44.31
2016-12-06T04:19:11.010Z,44.21
2016-12-06T04:19:36.646Z,44.49
2016-12-06T04:20:02.224Z,44.49
2016-12-06T04:20:27.873Z,44.49
2016-12-06T04:20:53.406Z,44.49
2016-12-06T04:21:18.948Z,44.49
2016-12-06T04:21:44.517Z,44.49
2016-12-06T04:22:10.064Z,44.49
2016-12-06T04:22:35.665Z,44.59
2016-12-06T04:23:01.281Z,44.4
2016-12-06T04:23:26.885Z,44.28
2016-12-06T04:23:52.430Z,44.59
2016-12-06T04:24:17.972Z,44.49
2016-12-06T04:25:10.962Z,44.31
2016-12-06T04:25:36.713Z,44.49
2016-12-06T04:26:31.671Z,44.48
2016-12-06T04:28:38.914Z,44.59
2016-12-06T04:29:04.455Z,44.59
2016-12-06T04:29:30.030Z,44.67
2016-12-06T04:29:55.566Z,44.31
2016-12-06T04:30:21.172Z,44.69
2016-12-06T04:30:46.793Z,44.57
2016-12-06T04:31:12.337Z,44.69
2016-12-06T04:31:37.925Z,44.31
2016-12-06T04:32:03.496Z,44.49
2016-12-06T04:32:29.123Z,44.59
2016-12-06T04:32:54.683Z,44.21
2016-12-06T04:33:20.226Z,44.4
2016-12-06T04:33:45.850Z,44.21
2016-12-06T04:34:11.414Z,44.4
2016-12-06T04:34:37.030Z,44.19
2016-12-06T04:35:02.594Z,44.69
2016-12-06T04:35:28.223Z,44.59
2016-12-06T04:35:53.781Z,44.31
2016-12-06T04:36:19.341Z,44.02
2016-12-06T04:36:44.925Z,44.31
2016-12-06T04:37:10.479Z,44.11
2016-12-06T04:37:36.066Z,44.21
2016-12-06T04:38:01.626Z,44.21
2016-12-06T04:38:27.220Z,44.69
2016-12-06T04:38:52.777Z,44.31
2016-12-06T04:39:19.041Z,44.02
2016-12-06T04:39:44.548Z,44.21
2016-12-06T04:40:10.098Z,44.11
2016-12-06T04:40:35.652Z,44.31
2016-12-06T04:41:01.240Z,44.02
2016-12-06T04:41:26.912Z,44.4
2016-12-06T04:41:52.471Z,44.59
2016-12-06T04:42:18.024Z,44.21
2016-12-06T04:42:43.540Z,44.11
2016-12-06T04:43:09.067Z,44.11
2016-12-06T04:43:34.619Z,44.02
2016-12-06T04:44:00.174Z,44.02
2016-12-06T04:44:25.738Z,44.02
2016-12-06T04:44:51.295Z,44.02
2016-12-06T04:45:16.849Z,44.02
2016-12-06T04:45:42.404Z,44.02
2016-12-06T04:46:07.972Z,44.02
2016-12-06T04:46:33.608Z,44.02
2016-12-06T04:46:59.166Z,44.02
2016-12-06T04:47:24.851Z,43.99
2016-12-06T04:47:50.420Z,43.73
2016-12-06T04:48:15.971Z,43.71
2016-12-06T04:48:41.550Z,43.71
2016-12-06T04:49:07.183Z,43.92
2016-12-06T04:49:32.730Z,43.92
2016-12-06T04:49:58.297Z,43.73
2016-12-06T04:50:23.865Z,43.73
2016-12-06T04:50:49.468Z,44.02
2016-12-06T04:51:15.010Z,44.02
2016-12-06T04:51:40.595Z,43.92
2016-12-06T04:52:06.178Z,44.02
2016-12-06T04:52:31.855Z,43.92
2016-12-06T04:52:57.429Z,43.54
2016-12-06T04:53:22.996Z,43.8
2016-12-06T04:53:48.537Z,43.54
2016-12-06T04:54:14.057Z,43.73
2016-12-06T04:54:39.588Z,43.73
2016-12-06T04:55:05.120Z,43.63
2016-12-06T04:55:30.686Z,43.73
2016-12-06T04:55:56.249Z,43.73
2016-12-06T04:56:21.817Z,43.92
2016-12-06T04:56:47.360Z,43.92
2016-12-06T04:57:12.921Z,43.73
2016-12-06T04:57:38.452Z,43.54
2016-12-06T04:58:04.002Z,43.82
2016-12-06T04:58:29.580Z,43.73
2016-12-06T04:58:55.143Z,43.73
2016-12-06T04:59:20.728Z,43.82
2016-12-06T04:59:46.265Z,43.8
2016-12-06T05:00:11.808Z,43.54
2016-12-06T05:00:37.358Z,43.44
2016-12-06T05:01:02.881Z,43.54
2016-12-06T05:01:28.444Z,43.92
2016-12-06T05:01:53.996Z,43.73
2016-12-06T05:02:19.665Z,43.73
2016-12-06T05:02:45.227Z,43.82
2016-12-06T05:03:10.798Z,43.63
2016-12-06T05:03:36.467Z,44.02
2016-12-06T05:04:01.999Z,44.11
2016-12-06T05:04:27.676Z,44.02
2016-12-06T05:04:53.324Z,44.4
2016-12-06T05:05:18.881Z,44.69
2016-12-06T05:05:44.432Z,44.69
2016-12-06T05:06:09.969Z,44.4
2016-12-06T05:06:35.539Z,44.4
2016-12-06T05:07:01.096Z,44.79
2016-12-06T05:07:26.654Z,44.89
2016-12-06T05:07:52.190Z,44.49
2016-12-06T05:08:17.795Z,44.4
2016-12-06T05:08:43.366Z,44.59
2016-12-06T05:09:08.924Z,44.69
2016-12-06T05:09:34.480Z,44.31
2016-12-06T05:10:00.022Z,44.69
2016-12-06T05:10:25.565Z,44.79
2016-12-06T05:10:51.150Z,44.59
2016-12-06T05:11:16.870Z,43.82
2016-12-06T05:11:42.264Z,43.44
2016-12-06T05:12:07.811Z,43.44
2016-12-06T05:12:33.392Z,42.67
2016-12-06T05:12:59.019Z,42.26
2016-12-06T05:13:24.587Z,41.97
2016-12-06T05:13:50.174Z,41.59
2016-12-06T05:14:15.755Z,41.68
2016-12-06T05:14:41.375Z,41.59
2016-12-06T05:15:07.111Z,41.2
2016-12-06T05:15:32.776Z,41.11
2016-12-06T05:15:58.341Z,40.91
2016-12-06T05:16:23.934Z,40.63
2016-12-06T05:16:49.513Z,40.43
2016-12-06T05:17:15.088Z,40.43
2016-12-06T05:17:40.656Z,39.76
2016-12-06T05:18:06.205Z,39.86
2016-12-06T05:18:31.854Z,39.56
2016-12-06T05:18:57.415Z,39.76
2016-12-06T05:19:22.971Z,39.18
2016-12-06T05:19:48.523Z,39.18
2016-12-06T05:20:14.097Z,38.89
2016-12-06T05:20:39.676Z,38.99
2016-12-06T05:21:05.256Z,38.99
2016-12-06T05:21:31.040Z,38.89
2016-12-06T05:21:56.600Z,39.09
2016-12-06T05:22:22.142Z,38.6
2016-12-06T05:22:47.795Z,38.41
2016-12-06T05:23:13.349Z,38.12
2016-12-06T05:23:38.908Z,38.12
2016-12-06T05:24:04.470Z,38.22
2016-12-06T05:24:30.019Z,38.31
2016-12-06T05:24:55.604Z,37.93
2016-12-06T05:25:21.190Z,38.02
2016-12-06T05:25:46.747Z,37.83
2016-12-06T05:26:12.307Z,37.64
2016-12-06T05:26:37.994Z,37.83
2016-12-06T05:27:03.550Z,37.64
2016-12-06T05:27:29.103Z,37.52
2016-12-06T05:27:54.656Z,37.14
2016-12-06T05:28:20.219Z,37.35
2016-12-06T05:28:45.862Z,37.43
2016-12-06T05:29:11.446Z,37.52
2016-12-06T05:29:37.133Z,37.52
2016-12-06T05:30:02.698Z,37.34
2016-12-06T05:30:28.251Z,37.43
2016-12-06T05:30:53.811Z,37.16
2016-12-06T05:31:19.383Z,37.34
2016-12-06T05:31:44.937Z,37.24
2016-12-06T05:32:10.510Z,37.04
2016-12-06T05:32:36.073Z,36.95
2016-12-06T05:33:01.728Z,36.85
2016-12-06T05:33:27.295Z,36.76
2016-12-06T05:33:52.854Z,37.04
2016-12-06T05:34:18.401Z,36.95
2016-12-06T05:34:44.177Z,36.95
2016-12-06T05:35:09.726Z,37.24
2016-12-06T05:35:35.306Z,37.14
2016-12-06T05:36:00.855Z,37.04
2016-12-06T05:36:26.409Z,36.85
2016-12-06T05:36:51.969Z,36.47
2016-12-06T05:37:17.539Z,36.37
2016-12-06T05:37:43.158Z,36.37
2016-12-06T05:38:08.755Z,36.56
2016-12-06T05:38:34.339Z,36.27
2016-12-06T05:38:59.876Z,35.89
2016-12-06T05:39:52.914Z,35.79
2016-12-06T05:41:43.916Z,35.6
2016-12-06T05:43:51.225Z,35.31
2016-12-06T05:44:16.790Z,35.22
2016-12-06T05:44:42.456Z,35.12
2016-12-06T05:45:08.066Z,35.02
2016-12-06T05:45:33.794Z,35.12
2016-12-06T05:45:59.451Z,35.12
2016-12-06T05:46:25.007Z,34.92
2016-12-06T05:46:50.572Z,34.74
2016-12-06T05:47:16.165Z,34.54
2016-12-06T05:47:41.731Z,34.45
2016-12-06T05:48:07.278Z,34.35
2016-12-06T05:48:32.955Z,34.25
2016-12-06T05:48:58.515Z,34.06
2016-12-06T05:49:24.076Z,33.77
2016-12-06T05:49:49.640Z,33.67
2016-12-06T05:50:15.216Z,33.67
2016-12-06T05:50:40.792Z,33.58
2016-12-06T05:51:06.445Z,33.29
2016-12-06T05:51:32.012Z,33.1
2016-12-06T05:51:57.593Z,33.29
2016-12-06T05:52:23.160Z,33.58
2016-12-06T05:53:16.221Z,35.7
2016-12-06T05:53:41.887Z,36.56
2016-12-06T05:54:07.568Z,36.76
2016-12-06T05:54:33.188Z,37.43
2016-12-06T05:54:58.767Z,38.2
2016-12-06T05:55:24.343Z,39.28
2016-12-06T05:55:49.903Z,40.03
2016-12-06T05:56:15.474Z,39.86
2016-12-06T05:56:41.029Z,39.47
2016-12-06T05:57:06.632Z,39.76
2016-12-06T05:57:32.198Z,38.99
2016-12-06T05:57:57.785Z,36.97
2016-12-06T05:58:23.328Z,34.45
2016-12-06T05:58:48.915Z,31.37
2016-12-06T05:59:14.501Z,29.83
2016-12-06T05:59:40.080Z,29.81
2016-12-06T06:00:05.626Z,30.49
2016-12-06T06:00:31.271Z,31.35
2016-12-06T06:00:56.855Z,33
2016-12-06T06:01:22.420Z,33.87
2016-12-06T06:01:47.949Z,34.54
2016-12-06T06:02:13.488Z,34.91
2016-12-06T06:02:39.050Z,35.41
2016-12-06T06:03:04.606Z,36.47
2016-12-06T06:03:30.160Z,36.66
2016-12-06T06:03:55.773Z,37.72
2016-12-06T06:04:21.320Z,38.39
2016-12-06T06:04:46.919Z,38.87
2016-12-06T06:05:12.490Z,38.97
2016-12-06T06:05:38.079Z,38.87
2016-12-06T06:06:03.741Z,39.06
2016-12-06T06:06:29.318Z,38.87
2016-12-06T06:06:54.878Z,38.87
2016-12-06T06:07:20.458Z,39.83
2016-12-06T06:07:46.013Z,41.28
2016-12-06T06:08:11.569Z,41.18
2016-12-06T06:08:37.162Z,41.95
2016-12-06T06:09:02.771Z,42.84
2016-12-06T06:09:28.378Z,43.11
2016-12-06T06:09:53.938Z,43.13
2016-12-06T06:10:19.466Z,43.32
2016-12-06T06:10:45.036Z,43.8
2016-12-06T06:11:10.610Z,43.99
2016-12-06T06:11:36.165Z,43.99
2016-12-06T06:12:01.704Z,44.48
2016-12-06T06:12:27.255Z,43.9
2016-12-06T06:12:52.820Z,43.41
2016-12-06T06:14:01.328Z,44.48
2016-12-06T06:14:26.903Z,44.76
2016-12-06T06:14:55.442Z,44.67
2016-12-06T06:15:21.015Z,44.76
2016-12-06T06:15:46.552Z,45.44
2016-12-06T06:16:12.199Z,46.01
2016-12-06T06:16:37.789Z,45.83
2016-12-06T06:17:03.369Z,43.71
2016-12-06T06:17:29.125Z,40.63
2016-12-06T06:17:54.690Z,39.28
2016-12-06T06:18:20.257Z,38.99
2016-12-06T06:18:45.807Z,38.1
2016-12-06T06:19:11.404Z,35.79
2016-12-06T06:19:36.960Z,33.87
2016-12-06T06:20:02.518Z,33.48
2016-12-06T06:20:28.169Z,34.53
2016-12-06T06:20:53.730Z,36.35
2016-12-06T06:21:19.303Z,39.04
2016-12-06T06:21:44.871Z,40.61
2016-12-06T06:22:10.411Z,41.47
2016-12-06T06:22:35.977Z,42.43
2016-12-06T06:23:01.539Z,42.53
2016-12-06T06:23:27.112Z,42.14
2016-12-06T06:23:52.682Z,42.43
2016-12-06T06:24:18.314Z,41.76
2016-12-06T06:24:43.858Z,42.82
2016-12-06T06:25:09.400Z,43.68
2016-12-06T06:25:34.941Z,44.55
2016-12-06T06:26:00.477Z,44.93
2016-12-06T06:26:26.114Z,44.84
2016-12-06T06:26:51.702Z,44.65
2016-12-06T06:27:17.262Z,44.74
2016-12-06T06:27:42.848Z,44.65
2016-12-06T06:28:08.481Z,44.65
2016-12-06T06:28:34.054Z,44.84
2016-12-06T06:28:59.622Z,45.03
2016-12-06T06:29:25.180Z,44.84
2016-12-06T06:29:50.743Z,44.65
2016-12-06T06:30:16.294Z,45.03
2016-12-06T06:30:41.862Z,45.13
2016-12-06T06:31:07.437Z,45.03
2016-12-06T06:31:33.019Z,45.03
2016-12-06T06:31:58.584Z,45.03
2016-12-06T06:32:24.150Z,45.32
2016-12-06T06:32:49.717Z,45.42
2016-12-06T06:33:15.288Z,45.51
2016-12-06T06:33:40.845Z,45.99
2016-12-06T06:34:06.414Z,45.9
2016-12-06T06:34:31.975Z,45.9
2016-12-06T06:34:57.560Z,46.19
2016-12-06T06:35:23.227Z,45.99
2016-12-06T06:35:48.841Z,45.42
2016-12-06T06:36:14.400Z,45.63
2016-12-06T06:36:40.049Z,46.19
2016-12-06T06:37:05.605Z,45.99
2016-12-06T06:37:31.211Z,45.92
2016-12-06T06:37:56.781Z,45.92
2016-12-06T06:38:22.332Z,46.01
2016-12-06T06:38:47.893Z,45.8
2016-12-06T06:39:13.470Z,45.8
2016-12-06T06:39:39.030Z,45.9
2016-12-06T06:40:04.579Z,45.83
2016-12-06T06:40:30.283Z,45.92
2016-12-06T06:40:55.860Z,45.73
2016-12-06T06:41:21.409Z,46.11
2016-12-06T06:41:46.963Z,46.01
2016-12-06T06:42:12.522Z,45.63
2016-12-06T06:42:38.060Z,45.99
2016-12-06T06:43:03.608Z,46.4
2016-12-06T06:43:29.222Z,46.5
2016-12-06T06:43:54.768Z,46.4
2016-12-06T06:44:20.328Z,45.92
2016-12-06T06:44:45.880Z,45.63
2016-12-06T06:45:11.438Z,45.73
2016-12-06T06:45:37.003Z,45.53
2016-12-06T06:46:02.566Z,46.4
2016-12-06T06:46:28.169Z,46.31
2016-12-06T06:46:53.747Z,46.4
2016-12-06T06:47:19.313Z,46.01
2016-12-06T06:47:44.867Z,45.73
2016-12-06T06:48:10.404Z,45.44
2016-12-06T06:48:35.939Z,45.73
2016-12-06T06:49:01.548Z,45.92
2016-12-06T06:49:27.085Z,45.53
2016-12-06T06:49:52.617Z,45.83
2016-12-06T06:50:18.180Z,45.7
2016-12-06T06:50:43.743Z,46.5
2016-12-06T06:51:09.313Z,45.53
2016-12-06T06:51:34.908Z,45.53
2016-12-06T06:52:00.465Z,45.63
2016-12-06T06:52:26.160Z,46.01
2016-12-06T06:52:51.731Z,45.63
2016-12-06T06:53:17.281Z,46.21
2016-12-06T06:53:42.878Z,46.21
2016-12-06T06:54:08.470Z,46.01
2016-12-06T06:54:34.043Z,46.4
2016-12-06T06:54:59.636Z,46.59
2016-12-06T06:55:25.354Z,46.5
2016-12-06T06:55:50.910Z,46.59
2016-12-06T06:56:16.459Z,46.78
2016-12-06T06:56:42.006Z,46.59
2016-12-06T06:57:07.570Z,46.78
2016-12-06T06:57:33.127Z,46.78
2016-12-06T06:57:58.664Z,47.08
2016-12-06T06:58:24.229Z,47.08
2016-12-06T06:58:49.758Z,46.69
2016-12-06T06:59:15.293Z,47.08
2016-12-06T06:59:40.835Z,46.98
2016-12-06T07:00:06.363Z,46.78
2016-12-06T07:00:59.364Z,46.69
2016-12-06T07:01:24.917Z,46.59
2016-12-06T07:01:50.467Z,46.59
2016-12-06T07:02:16.161Z,46.88
2016-12-06T07:02:41.749Z,46.5
2016-12-06T07:03:07.304Z,46.59
2016-12-06T07:03:32.923Z,46.59
2016-12-06T07:03:58.582Z,46.78
2016-12-06T07:04:24.144Z,46.78
2016-12-06T07:04:49.691Z,46.69
2016-12-06T07:05:15.398Z,46.5
2016-12-06T07:05:40.961Z,46.59
2016-12-06T07:06:06.532Z,46.88
2016-12-06T07:06:32.126Z,46.88
2016-12-06T07:06:57.676Z,46.78
2016-12-06T07:07:23.245Z,46.88
2016-12-06T07:07:48.800Z,46.88
2016-12-06T07:08:14.369Z,46.88
2016-12-06T07:08:39.942Z,46.88
2016-12-06T07:09:05.497Z,46.69
2016-12-06T07:09:31.052Z,46.59
2016-12-06T07:09:56.630Z,46.78
2016-12-06T07:10:22.713Z,46.59
2016-12-06T07:10:48.262Z,46.69
2016-12-06T07:11:13.816Z,46.88
2016-12-06T07:12:27.431Z,46.4
2016-12-06T07:12:53.010Z,46.31
2016-12-06T07:13:18.558Z,46.31
2016-12-06T07:13:44.116Z,46.69
2016-12-06T07:14:09.705Z,46.31
2016-12-06T07:14:35.281Z,46.31
2016-12-06T07:15:00.831Z,46.21
2016-12-06T07:15:26.537Z,46.31
2016-12-06T07:15:52.185Z,46.21
2016-12-06T07:16:17.788Z,46.69
2016-12-06T07:16:43.493Z,46.69
2016-12-06T07:17:09.059Z,46.69
2016-12-06T07:17:34.646Z,46.4
2016-12-06T07:18:00.252Z,46.59
2016-12-06T07:18:25.830Z,46.5
2016-12-06T07:18:51.387Z,46.21
2016-12-06T07:19:16.937Z,46.59
2016-12-06T07:19:42.483Z,46.4
2016-12-06T07:20:08.034Z,46.5
2016-12-06T07:20:33.586Z,46.5
2016-12-06T07:20:59.126Z,46.5
2016-12-06T07:21:24.657Z,46.4
2016-12-06T07:21:50.202Z,46.5
2016-12-06T07:22:15.750Z,46.59
2016-12-06T07:22:41.398Z,46.4
2016-12-06T07:23:06.943Z,46.78
2016-12-06T07:23:32.578Z,46.31
2016-12-06T07:23:58.211Z,46.5
2016-12-06T07:24:23.776Z,46.4
2016-12-06T07:24:49.304Z,46.21
2016-12-06T07:25:14.865Z,46.5
2016-12-06T07:25:40.419Z,46.4
2016-12-06T07:26:06.024Z,46.5
2016-12-06T07:26:31.593Z,46.31
2016-12-06T07:26:57.455Z,46.31
2016-12-06T07:27:23.018Z,46.21
2016-12-06T07:27:48.642Z,46.4
2016-12-06T07:28:14.284Z,46.31
2016-12-06T07:28:39.817Z,46.4
2016-12-06T07:29:05.414Z,46.11
2016-12-06T07:29:30.984Z,46.21
2016-12-06T07:29:56.560Z,46.31
2016-12-06T07:30:54.648Z,46.59
2016-12-06T07:32:08.041Z,46.4
2016-12-06T07:34:15.267Z,46.4
2016-12-06T07:34:40.851Z,46.4
2016-12-06T07:35:06.424Z,46.31
2016-12-06T07:36:19.881Z,46.11
2016-12-06T07:36:45.529Z,46.11
2016-12-06T07:37:11.088Z,46.11
2016-12-06T07:37:36.634Z,46.21
2016-12-06T07:38:02.163Z,46.4
2016-12-06T07:38:27.697Z,45.63
2016-12-06T07:38:53.272Z,46.01
2016-12-06T07:39:18.871Z,45.92
2016-12-06T07:39:44.409Z,46.4
2016-12-06T07:40:09.945Z,46.11
2016-12-06T07:40:35.465Z,46.4
2016-12-06T07:41:01.060Z,46.01
2016-12-06T07:41:26.631Z,46.01
2016-12-06T07:41:52.191Z,46.01
2016-12-06T07:42:17.916Z,46.11
2016-12-06T07:42:43.511Z,46.4
2016-12-06T07:43:09.065Z,46.31
2016-12-06T07:43:34.619Z,46.4
2016-12-06T07:44:00.295Z,46.31
2016-12-06T07:44:25.869Z,46.31
2016-12-06T07:44:51.419Z,46.59
2016-12-06T07:45:17.028Z,46.5
2016-12-06T07:45:42.673Z,46.21
2016-12-06T07:46:08.241Z,46.4
2016-12-06T07:46:33.818Z,46.5
2016-12-06T07:46:59.383Z,46.5
2016-12-06T07:47:24.998Z,46.31
2016-12-06T07:47:50.596Z,46.78
2016-12-06T07:48:16.270Z,46.5
2016-12-06T07:48:41.894Z,46.59
2016-12-06T07:49:07.430Z,46.69
2016-12-06T07:49:32.982Z,46.88
2016-12-06T07:49:58.622Z,46.69
2016-12-06T07:50:24.197Z,46.69
2016-12-06T07:50:49.715Z,46.59
2016-12-06T07:51:15.264Z,46.98
2016-12-06T07:51:40.894Z,46.98
2016-12-06T07:52:06.507Z,46.88
2016-12-06T07:52:32.088Z,46.52
2016-12-06T07:52:57.644Z,46.59
2016-12-06T07:53:23.189Z,46.78
2016-12-06T07:53:48.746Z,46.78
2016-12-06T07:54:14.292Z,46.78
2016-12-06T07:54:39.862Z,46.78
2016-12-06T07:55:05.408Z,46.78
2016-12-06T07:55:31.055Z,46.88
2016-12-06T07:55:56.650Z,46.5
2016-12-06T07:56:22.188Z,46.78
2016-12-06T07:56:47.796Z,46.69
2016-12-06T07:57:13.427Z,46.69
2016-12-06T07:57:38.982Z,46.88
2016-12-06T07:58:04.504Z,46.69
2016-12-06T07:58:30.034Z,47.17
2016-12-06T07:58:55.595Z,47.08
2016-12-06T07:59:21.164Z,46.78
2016-12-06T07:59:46.718Z,46.69
2016-12-06T08:00:12.271Z,46.88
2016-12-06T08:00:37.880Z,46.88
2016-12-06T08:01:03.414Z,47.08
2016-12-06T08:01:29.000Z,47.17
2016-12-06T08:01:54.598Z,47.08
2016-12-06T08:02:20.157Z,47.17
2016-12-06T08:02:45.730Z,47.08
2016-12-06T08:03:11.361Z,47.56
2016-12-06T08:03:36.934Z,47.85
2016-12-06T08:04:02.491Z,47.85
2016-12-06T08:04:28.065Z,47.85
2016-12-06T08:04:53.598Z,47.94
2016-12-06T08:05:19.163Z,47.27
2016-12-06T08:05:44.683Z,47.17
2016-12-06T08:06:10.303Z,47.08
2016-12-06T08:06:35.856Z,46.69
2016-12-06T08:07:01.403Z,46.69
2016-12-06T08:07:26.972Z,46.88
2016-12-06T08:07:52.597Z,46.69
2016-12-06T08:08:18.317Z,47.17
2016-12-06T08:08:43.862Z,47.17
2016-12-06T08:09:09.410Z,47.17
2016-12-06T08:09:34.982Z,46.98
2016-12-06T08:10:00.539Z,46.88
2016-12-06T08:10:26.190Z,46.69
2016-12-06T08:10:51.763Z,46.78
2016-12-06T08:11:17.529Z,47.08
2016-12-06T08:11:43.092Z,46.69
2016-12-06T08:12:08.670Z,47.08
2016-12-06T08:12:34.231Z,47.36
2016-12-06T08:12:59.804Z,47.36
2016-12-06T08:13:25.366Z,46.88
2016-12-06T08:13:50.928Z,46.88
2016-12-06T08:14:16.513Z,46.98
2016-12-06T08:14:42.088Z,46.69
2016-12-06T08:15:07.653Z,46.98
2016-12-06T08:15:33.215Z,47.08
2016-12-06T08:15:58.777Z,47.08
2016-12-06T08:16:24.317Z,47.08
2016-12-06T08:16:49.904Z,46.69
2016-12-06T08:17:15.472Z,47.08
2016-12-06T08:17:41.038Z,46.88
2016-12-06T08:18:06.600Z,47.08
2016-12-06T08:18:32.171Z,47.08
2016-12-06T08:18:57.711Z,47.17
2016-12-06T08:19:23.293Z,47.27
2016-12-06T08:19:48.867Z,46.98
2016-12-06T08:20:14.432Z,47.08
2016-12-06T08:20:40.053Z,46.69
2016-12-06T08:21:05.677Z,46.98
2016-12-06T08:21:31.230Z,47.27
2016-12-06T08:21:56.803Z,46.69
2016-12-06T08:22:22.345Z,47.08
2016-12-06T08:22:47.901Z,46.69
2016-12-06T08:23:13.471Z,47.08
2016-12-06T08:23:39.022Z,47.17
2016-12-06T08:24:04.585Z,46.69
2016-12-06T08:24:30.128Z,46.78
2016-12-06T08:24:55.701Z,47.08
2016-12-06T08:25:21.254Z,47.08
2016-12-06T08:25:46.821Z,47.08
2016-12-06T08:26:12.409Z,46.98
2016-12-06T08:26:37.984Z,47.17
2016-12-06T08:27:03.522Z,46.88
2016-12-06T08:27:29.093Z,46.59
2016-12-06T08:27:54.747Z,46.59
2016-12-06T08:28:20.332Z,47.08
2016-12-06T08:28:45.883Z,46.98
2016-12-06T08:29:11.452Z,47.17
2016-12-06T08:29:37.006Z,47.08
2016-12-06T08:30:02.563Z,47.08
2016-12-06T08:30:28.118Z,47.17
2016-12-06T08:30:53.690Z,47.08
2016-12-06T08:31:19.263Z,47.08
2016-12-06T08:31:44.805Z,46.98
2016-12-06T08:32:10.354Z,47.08
2016-12-06T08:32:35.901Z,47.08
2016-12-06T08:33:01.458Z,47.08
2016-12-06T08:33:27.023Z,47.08
2016-12-06T08:33:52.584Z,47.08
2016-12-06T08:34:18.116Z,46.98
2016-12-06T08:34:43.662Z,46.98
2016-12-06T08:35:09.197Z,47.08
2016-12-06T08:35:34.740Z,47.08
2016-12-06T08:36:00.277Z,47.08
2016-12-06T08:36:25.835Z,46.98
2016-12-06T08:36:51.379Z,46.69
2016-12-06T08:37:16.977Z,46.78
2016-12-06T08:37:42.500Z,46.69
2016-12-06T08:38:08.067Z,46.88
2016-12-06T08:38:33.628Z,46.88
2016-12-06T08:38:59.186Z,46.88
2016-12-06T08:39:24.737Z,46.69
2016-12-06T08:39:50.293Z,46.59
2016-12-06T08:40:15.838Z,46.59
2016-12-06T08:40:41.397Z,46.59
2016-12-06T08:41:06.927Z,46.59
2016-12-06T08:41:32.465Z,46.59
2016-12-06T08:41:58.035Z,46.59
2016-12-06T08:42:23.671Z,46.59
2016-12-06T08:42:49.201Z,46.59
2016-12-06T08:43:14.738Z,46.59
2016-12-06T08:43:40.286Z,46.69
2016-12-06T08:44:05.818Z,46.69
2016-12-06T08:44:31.389Z,46.59
2016-12-06T08:44:56.944Z,46.69
2016-12-06T08:45:22.499Z,46.5
2016-12-06T08:45:48.159Z,46.4
2016-12-06T08:46:13.735Z,46.4
2016-12-06T08:46:39.335Z,46.5
2016-12-06T08:47:04.883Z,46.4
2016-12-06T08:47:30.449Z,46.31
2016-12-06T08:47:56.054Z,46.11
2016-12-06T08:48:21.645Z,46.5
2016-12-06T08:48:47.219Z,46.11
2016-12-06T08:49:12.794Z,46.31
2016-12-06T08:49:38.491Z,46.21
2016-12-06T08:50:04.070Z,46.5
2016-12-06T08:50:29.619Z,46.5
2016-12-06T08:50:55.279Z,46.69
2016-12-06T08:51:20.851Z,46.69
2016-12-06T08:51:46.437Z,46.69
2016-12-06T08:52:12.000Z,46.69
2016-12-06T08:52:37.571Z,46.4
2016-12-06T08:53:03.128Z,46.69
2016-12-06T08:53:28.717Z,46.69
2016-12-06T08:53:54.267Z,46.59
2016-12-06T08:54:19.819Z,46.21
2016-12-06T08:54:45.365Z,46.21
2016-12-06T08:55:10.935Z,46.21
2016-12-06T08:55:36.498Z,46.31
2016-12-06T08:56:02.069Z,46.21
2016-12-06T08:56:27.650Z,46.59
2016-12-06T08:56:53.283Z,46.59
2016-12-06T08:57:18.851Z,46.21
2016-12-06T08:57:44.410Z,46.31
2016-12-06T08:58:09.969Z,46.4
2016-12-06T08:58:35.516Z,46.4
2016-12-06T08:59:01.082Z,46.21
2016-12-06T08:59:26.634Z,46.4
2016-12-06T08:59:52.209Z,46.4
2016-12-06T09:00:17.776Z,46.31
2016-12-06T09:00:43.359Z,46.31
2016-12-06T09:01:08.955Z,46.31
2016-12-06T09:01:34.505Z,46.31
2016-12-06T09:02:00.088Z,46.4
2016-12-06T09:02:25.664Z,46.4
2016-12-06T09:02:51.304Z,46.4
2016-12-06T09:03:16.853Z,46.31
2016-12-06T09:03:42.414Z,46.21
2016-12-06T09:04:07.993Z,46.21
2016-12-06T09:04:33.546Z,46.31
2016-12-06T09:04:59.109Z,46.21
2016-12-06T09:05:24.672Z,46.21
2016-12-06T09:05:50.288Z,46.21
2016-12-06T09:06:15.842Z,46.5
2016-12-06T09:06:41.415Z,46.21
2016-12-06T09:07:07.078Z,46.21
2016-12-06T09:07:32.623Z,46.31
2016-12-06T09:07:58.175Z,46.31
2016-12-06T09:08:23.954Z,46.4
2016-12-06T09:08:49.522Z,46.31
2016-12-06T09:09:15.090Z,46.21
2016-12-06T09:09:40.653Z,46.4
2016-12-06T09:10:06.253Z,46.21
2016-12-06T09:10:31.815Z,46.31
2016-12-06T09:10:57.389Z,46.31
2016-12-06T09:11:22.961Z,46.21
2016-12-06T09:11:48.533Z,46.5
2016-12-06T09:12:14.218Z,46.4
2016-12-06T09:12:39.759Z,46.5
2016-12-06T09:13:05.305Z,46.5
2016-12-06T09:13:30.878Z,46.4
2016-12-06T09:13:56.471Z,46.59
2016-12-06T09:14:22.022Z,46.11
2016-12-06T09:14:47.596Z,46.4
2016-12-06T09:15:13.152Z,46.4
2016-12-06T09:15:38.702Z,46.5
2016-12-06T09:16:04.249Z,46.5
2016-12-06T09:16:29.804Z,46.59
2016-12-06T09:16:55.341Z,46.59
2016-12-06T09:17:20.904Z,46.5
2016-12-06T09:17:46.472Z,46.5
2016-12-06T09:18:12.158Z,46.5
2016-12-06T09:18:37.760Z,46.4
2016-12-06T09:19:03.328Z,46.31
2016-12-06T09:19:28.875Z,46.01
2016-12-06T09:19:54.447Z,46.31
2016-12-06T09:20:19.994Z,46.5
2016-12-06T09:20:45.554Z,46.52
2016-12-06T09:21:11.097Z,46.4
2016-12-06T09:21:36.671Z,46.21
2016-12-06T09:22:02.237Z,46.21
2016-12-06T09:22:27.801Z,46.4
2016-12-06T09:22:53.405Z,46.4
2016-12-06T09:23:18.930Z,46.5
2016-12-06T09:23:44.596Z,46.4
2016-12-06T09:24:10.147Z,46.31
2016-12-06T09:24:35.700Z,46.4
2016-12-06T09:25:01.263Z,46.5
2016-12-06T09:25:26.778Z,46.4
2016-12-06T09:25:52.506Z,46.21
2016-12-06T09:26:18.055Z,46.4
2016-12-06T09:26:43.590Z,46.31
2016-12-06T09:27:09.130Z,46.4
2016-12-06T09:27:34.681Z,46.4
2016-12-06T09:28:00.229Z,46.4
2016-12-06T09:28:25.761Z,46.4
2016-12-06T09:28:51.372Z,46.4
2016-12-06T09:29:16.964Z,46.4
2016-12-06T09:29:42.511Z,46.4
2016-12-06T09:30:08.045Z,46.31
2016-12-06T09:30:33.631Z,46.4
2016-12-06T09:30:59.176Z,46.21
2016-12-06T09:31:24.714Z,46.4
2016-12-06T09:31:50.434Z,46.4
2016-12-06T09:32:15.964Z,46.4
2016-12-06T09:32:41.524Z,46.4
2016-12-06T09:33:07.087Z,46.21
2016-12-06T09:33:32.636Z,46.4
2016-12-06T09:33:58.188Z,46.4
2016-12-06T09:34:23.711Z,46.31
2016-12-06T09:34:49.252Z,46.4
2016-12-06T09:35:14.800Z,46.4
2016-12-06T09:35:40.338Z,46.4
2016-12-06T09:36:05.946Z,46.31
2016-12-06T09:36:31.487Z,46.59
2016-12-06T09:36:57.015Z,46.59
2016-12-06T09:37:22.563Z,46.31
2016-12-06T09:37:48.102Z,46.69
2016-12-06T09:38:13.665Z,46.69
2016-12-06T09:38:39.380Z,46.31
2016-12-06T09:39:04.845Z,46.31
2016-12-06T09:39:30.441Z,46.5
2016-12-06T09:39:56.018Z,46.5
2016-12-06T09:40:21.572Z,46.31
2016-12-06T09:40:47.146Z,46.31
2016-12-06T09:41:12.786Z,46.21
2016-12-06T09:41:38.355Z,46.5
2016-12-06T09:42:03.904Z,46.78
2016-12-06T09:42:29.473Z,46.5
2016-12-06T09:42:55.030Z,46.69
2016-12-06T09:43:20.601Z,46.69
2016-12-06T09:43:46.272Z,46.5